sensor_id;sensor_type;location;lat;lon;timestamp;P1;durP1;ratioP1;P2;durP2;ratioP2
15496;SDS011;7850;52.204;5.942;2023-05-07T00:03:17;0.33;;;0.33;;
15496;SDS011;7850;52.204;5.942;2023-05-07T00:03:17;0.40;;;0.40;;
15496;SDS011;7850;52.204;5.942;2023-05-07T00:03:17;0.45;;;0.45;;
15496;SDS011;7850;52.204;5.942;2023-05-07T00:03:54;0.30;;;0.30;;
15496;SDS011;7850;52.204;5.942;2023-05-07T00:04:54;0.46;;;0.46;;
15496;SDS011;7850;52.204;5.942;2023-05-07T00:05:54;0.56;;;0.56;;
15496;SDS011;7850;52.204;5.942;2023-05-07T00:06:54;0.56;;;0.56;;
15496;SDS011;7850;52.204;5.942;2023-05-07T00:07:54;0.37;;;0.37;;
15496;SDS011;7850;52.204;5.942;2023-05-07T00:08:55;0.61;;;0.61;;
15496;SDS011;7850;52.204;5.942;2023-05-07T00:09:54;0.46;;;0.46;;
15496;SDS011;7850;52.204;5.942;2023-05-07T00:10:54;0.40;;;0.40;;
15496;SDS011;7850;52.204;5.942;2023-05-07T00:11:54;0.53;;;0.53;;
15496;SDS011;7850;52.204;5.942;2023-05-07T00:12:54;0.49;;;0.49;;
15496;SDS011;7850;52.204;5.942;2023-05-07T00:13:55;0.35;;;0.35;;
15496;SDS011;7850;52.204;5.942;2023-05-07T00:14:55;0.30;;;0.30;;
15496;SDS011;7850;52.204;5.942;2023-05-07T00:15:55;0.26;;;0.26;;
15496;SDS011;7850;52.204;5.942;2023-05-07T00:16:55;1.16;;;1.16;;
15496;SDS011;7850;52.204;5.942;2023-05-07T00:17:55;0.28;;;0.28;;
15496;SDS011;7850;52.204;5.942;2023-05-07T00:18:55;0.48;;;0.48;;
15496;SDS011;7850;52.204;5.942;2023-05-07T00:19:55;0.40;;;0.40;;
15496;SDS011;7850;52.204;5.942;2023-05-07T00:20:55;0.35;;;0.35;;
15496;SDS011;7850;52.204;5.942;2023-05-07T00:21:55;0.35;;;0.35;;
15496;SDS011;7850;52.204;5.942;2023-05-07T00:22:55;1.02;;;1.02;;
15496;SDS011;7850;52.204;5.942;2023-05-07T00:23:55;0.40;;;0.40;;
15496;SDS011;7850;52.204;5.942;2023-05-07T00:24:55;0.74;;;0.74;;
15496;SDS011;7850;52.204;5.942;2023-05-07T00:25:56;0.56;;;0.56;;
15496;SDS011;7850;52.204;5.942;2023-05-07T00:26:56;0.45;;;0.45;;
15496;SDS011;7850;52.204;5.942;2023-05-07T00:27:56;0.46;;;0.46;;
15496;SDS011;7850;52.204;5.942;2023-05-07T00:28:56;0.42;;;0.42;;
15496;SDS011;7850;52.204;5.942;2023-05-07T00:29:56;0.40;;;0.40;;
15496;SDS011;7850;52.204;5.942;2023-05-07T00:30:56;0.33;;;0.33;;
15496;SDS011;7850;52.204;5.942;2023-05-07T00:31:56;0.36;;;0.36;;
15496;SDS011;7850;52.204;5.942;2023-05-07T00:32:56;0.40;;;0.40;;
15496;SDS011;7850;52.204;5.942;2023-05-07T00:33:56;0.51;;;0.51;;
15496;SDS011;7850;52.204;5.942;2023-05-07T00:34:56;0.46;;;0.46;;
15496;SDS011;7850;52.204;5.942;2023-05-07T00:35:56;0.40;;;0.40;;
15496;SDS011;7850;52.204;5.942;2023-05-07T00:36:56;0.40;;;0.40;;
15496;SDS011;7850;52.204;5.942;2023-05-07T00:37:57;0.36;;;0.36;;
15496;SDS011;7850;52.204;5.942;2023-05-07T00:38:57;0.37;;;0.37;;
15496;SDS011;7850;52.204;5.942;2023-05-07T00:39:57;0.35;;;0.35;;
15496;SDS011;7850;52.204;5.942;2023-05-07T00:40:56;0.38;;;0.38;;
15496;SDS011;7850;52.204;5.942;2023-05-07T00:41:56;0.42;;;0.42;;
15496;SDS011;7850;52.204;5.942;2023-05-07T00:42:57;0.34;;;0.34;;
15496;SDS011;7850;52.204;5.942;2023-05-07T00:43:57;0.75;;;0.75;;
15496;SDS011;7850;52.204;5.942;2023-05-07T00:44:57;0.67;;;0.67;;
15496;SDS011;7850;52.204;5.942;2023-05-07T00:45:57;0.88;;;0.88;;
15496;SDS011;7850;52.204;5.942;2023-05-07T00:46:58;0.98;;;0.98;;
15496;SDS011;7850;52.204;5.942;2023-05-07T00:47:57;0.40;;;0.40;;
15496;SDS011;7850;52.204;5.942;2023-05-07T00:48:57;0.32;;;0.32;;
15496;SDS011;7850;52.204;5.942;2023-05-07T00:49:57;0.37;;;0.37;;
15496;SDS011;7850;52.204;5.942;2023-05-07T00:50:57;0.51;;;0.51;;
15496;SDS011;7850;52.204;5.942;2023-05-07T00:51:57;0.68;;;0.68;;
15496;SDS011;7850;52.204;5.942;2023-05-07T00:52:57;0.40;;;0.40;;
15496;SDS011;7850;52.204;5.942;2023-05-07T00:53:57;0.39;;;0.39;;
15496;SDS011;7850;52.204;5.942;2023-05-07T00:54:57;0.44;;;0.44;;
15496;SDS011;7850;52.204;5.942;2023-05-07T00:55:57;0.31;;;0.31;;
15496;SDS011;7850;52.204;5.942;2023-05-07T00:56:57;0.44;;;0.44;;
15496;SDS011;7850;52.204;5.942;2023-05-07T00:57:59;0.42;;;0.42;;
15496;SDS011;7850;52.204;5.942;2023-05-07T00:58:58;0.41;;;0.41;;
15496;SDS011;7850;52.204;5.942;2023-05-07T00:59:58;0.59;;;0.59;;
15496;SDS011;7850;52.204;5.942;2023-05-07T01:00:58;0.31;;;0.31;;
15496;SDS011;7850;52.204;5.942;2023-05-07T01:01:58;0.40;;;0.40;;
15496;SDS011;7850;52.204;5.942;2023-05-07T01:02:58;0.41;;;0.41;;
15496;SDS011;7850;52.204;5.942;2023-05-07T01:03:58;0.40;;;0.40;;
15496;SDS011;7850;52.204;5.942;2023-05-07T01:04:58;0.58;;;0.58;;
15496;SDS011;7850;52.204;5.942;2023-05-07T01:05:58;0.30;;;0.30;;
15496;SDS011;7850;52.204;5.942;2023-05-07T01:06:58;0.30;;;0.30;;
15496;SDS011;7850;52.204;5.942;2023-05-07T01:07:58;0.39;;;0.39;;
15496;SDS011;7850;52.204;5.942;2023-05-07T01:08:58;0.30;;;0.30;;
15496;SDS011;7850;52.204;5.942;2023-05-07T01:09:58;0.38;;;0.38;;
15496;SDS011;7850;52.204;5.942;2023-05-07T01:10:58;0.38;;;0.38;;
15496;SDS011;7850;52.204;5.942;2023-05-07T01:11:58;0.40;;;0.40;;
15496;SDS011;7850;52.204;5.942;2023-05-07T01:12:58;0.61;;;0.61;;
15496;SDS011;7850;52.204;5.942;2023-05-07T01:13:58;0.37;;;0.37;;
15496;SDS011;7850;52.204;5.942;2023-05-07T01:14:58;0.50;;;0.50;;
15496;SDS011;7850;52.204;5.942;2023-05-07T01:15:59;0.81;;;0.81;;
15496;SDS011;7850;52.204;5.942;2023-05-07T01:16:59;0.72;;;0.72;;
15496;SDS011;7850;52.204;5.942;2023-05-07T01:18:03;0.65;;;0.65;;
15496;SDS011;7850;52.204;5.942;2023-05-07T01:18:59;0.68;;;0.68;;
15496;SDS011;7850;52.204;5.942;2023-05-07T01:19:59;0.49;;;0.49;;
15496;SDS011;7850;52.204;5.942;2023-05-07T01:20:59;0.47;;;0.47;;
15496;SDS011;7850;52.204;5.942;2023-05-07T01:22:01;0.59;;;0.59;;
15496;SDS011;7850;52.204;5.942;2023-05-07T01:22:59;0.64;;;0.64;;
15496;SDS011;7850;52.204;5.942;2023-05-07T01:23:59;0.30;;;0.30;;
15496;SDS011;7850;52.204;5.942;2023-05-07T01:24:59;0.44;;;0.44;;
15496;SDS011;7850;52.204;5.942;2023-05-07T01:25:59;0.50;;;0.50;;
15496;SDS011;7850;52.204;5.942;2023-05-07T01:26:59;0.30;;;0.30;;
15496;SDS011;7850;52.204;5.942;2023-05-07T01:27:59;0.30;;;0.30;;
15496;SDS011;7850;52.204;5.942;2023-05-07T01:28:59;0.32;;;0.32;;
15496;SDS011;7850;52.204;5.942;2023-05-07T01:29:59;0.23;;;0.23;;
15496;SDS011;7850;52.204;5.942;2023-05-07T01:31:01;0.39;;;0.39;;
15496;SDS011;7850;52.204;5.942;2023-05-07T01:32:00;0.39;;;0.39;;
15496;SDS011;7850;52.204;5.942;2023-05-07T01:33:01;0.30;;;0.30;;
15496;SDS011;7850;52.204;5.942;2023-05-07T01:34:00;0.36;;;0.36;;
15496;SDS011;7850;52.204;5.942;2023-05-07T01:35:00;0.30;;;0.30;;
15496;SDS011;7850;52.204;5.942;2023-05-07T01:36:00;0.38;;;0.38;;
15496;SDS011;7850;52.204;5.942;2023-05-07T01:37:00;0.41;;;0.41;;
15496;SDS011;7850;52.204;5.942;2023-05-07T01:38:00;0.36;;;0.36;;
15496;SDS011;7850;52.204;5.942;2023-05-07T01:39:00;0.63;;;0.63;;
15496;SDS011;7850;52.204;5.942;2023-05-07T01:40:00;0.30;;;0.30;;
15496;SDS011;7850;52.204;5.942;2023-05-07T01:41:00;0.30;;;0.30;;
15496;SDS011;7850;52.204;5.942;2023-05-07T01:42:00;0.30;;;0.30;;
15496;SDS011;7850;52.204;5.942;2023-05-07T01:43:00;0.38;;;0.38;;
15496;SDS011;7850;52.204;5.942;2023-05-07T01:44:00;0.31;;;0.31;;
15496;SDS011;7850;52.204;5.942;2023-05-07T01:45:00;0.34;;;0.34;;
15496;SDS011;7850;52.204;5.942;2023-05-07T01:46:01;0.34;;;0.34;;
15496;SDS011;7850;52.204;5.942;2023-05-07T01:47:01;0.40;;;0.40;;
15496;SDS011;7850;52.204;5.942;2023-05-07T01:48:01;0.36;;;0.36;;
15496;SDS011;7850;52.204;5.942;2023-05-07T01:49:01;0.59;;;0.59;;
15496;SDS011;7850;52.204;5.942;2023-05-07T01:50:01;0.32;;;0.32;;
15496;SDS011;7850;52.204;5.942;2023-05-07T01:51:01;0.35;;;0.35;;
15496;SDS011;7850;52.204;5.942;2023-05-07T01:52:01;0.30;;;0.30;;
15496;SDS011;7850;52.204;5.942;2023-05-07T01:53:01;0.27;;;0.27;;
15496;SDS011;7850;52.204;5.942;2023-05-07T01:54:01;0.40;;;0.40;;
15496;SDS011;7850;52.204;5.942;2023-05-07T01:55:01;0.48;;;0.48;;
15496;SDS011;7850;52.204;5.942;2023-05-07T01:56:01;0.59;;;0.59;;
15496;SDS011;7850;52.204;5.942;2023-05-07T01:57:01;0.57;;;0.57;;
15496;SDS011;7850;52.204;5.942;2023-05-07T01:58:01;0.50;;;0.50;;
15496;SDS011;7850;52.204;5.942;2023-05-07T01:59:01;0.45;;;0.45;;
15496;SDS011;7850;52.204;5.942;2023-05-07T02:00:05;0.50;;;0.50;;
15496;SDS011;7850;52.204;5.942;2023-05-07T02:01:01;0.44;;;0.44;;
15496;SDS011;7850;52.204;5.942;2023-05-07T02:02:01;0.83;;;0.83;;
15496;SDS011;7850;52.204;5.942;2023-05-07T02:03:02;0.73;;;0.73;;
15496;SDS011;7850;52.204;5.942;2023-05-07T02:04:02;0.64;;;0.64;;
15496;SDS011;7850;52.204;5.942;2023-05-07T02:05:02;0.52;;;0.52;;
15496;SDS011;7850;52.204;5.942;2023-05-07T02:06:02;0.66;;;0.66;;
15496;SDS011;7850;52.204;5.942;2023-05-07T02:07:02;0.80;;;0.80;;
15496;SDS011;7850;52.204;5.942;2023-05-07T02:08:02;0.70;;;0.70;;
15496;SDS011;7850;52.204;5.942;2023-05-07T02:09:02;0.81;;;0.81;;
15496;SDS011;7850;52.204;5.942;2023-05-07T02:10:03;0.81;;;0.81;;
15496;SDS011;7850;52.204;5.942;2023-05-07T02:11:02;0.44;;;0.44;;
15496;SDS011;7850;52.204;5.942;2023-05-07T02:12:02;0.51;;;0.51;;
15496;SDS011;7850;52.204;5.942;2023-05-07T02:13:02;0.51;;;0.51;;
15496;SDS011;7850;52.204;5.942;2023-05-07T02:14:02;1.34;;;1.34;;
15496;SDS011;7850;52.204;5.942;2023-05-07T02:15:03;0.23;;;0.23;;
15496;SDS011;7850;52.204;5.942;2023-05-07T02:16:03;0.61;;;0.61;;
15496;SDS011;7850;52.204;5.942;2023-05-07T02:17:02;0.84;;;0.84;;
15496;SDS011;7850;52.204;5.942;2023-05-07T02:18:03;0.76;;;0.76;;
15496;SDS011;7850;52.204;5.942;2023-05-07T02:19:03;0.73;;;0.73;;
15496;SDS011;7850;52.204;5.942;2023-05-07T02:20:03;0.58;;;0.58;;
15496;SDS011;7850;52.204;5.942;2023-05-07T02:21:03;0.78;;;0.78;;
15496;SDS011;7850;52.204;5.942;2023-05-07T02:22:03;0.77;;;0.77;;
15496;SDS011;7850;52.204;5.942;2023-05-07T02:23:03;0.98;;;0.98;;
15496;SDS011;7850;52.204;5.942;2023-05-07T02:24:03;0.80;;;0.80;;
15496;SDS011;7850;52.204;5.942;2023-05-07T02:25:03;0.71;;;0.71;;
15496;SDS011;7850;52.204;5.942;2023-05-07T02:26:03;0.44;;;0.44;;
15496;SDS011;7850;52.204;5.942;2023-05-07T02:27:03;0.73;;;0.73;;
15496;SDS011;7850;52.204;5.942;2023-05-07T02:28:03;0.81;;;0.81;;
15496;SDS011;7850;52.204;5.942;2023-05-07T02:29:03;0.91;;;0.91;;
15496;SDS011;7850;52.204;5.942;2023-05-07T02:30:04;0.90;;;0.90;;
15496;SDS011;7850;52.204;5.942;2023-05-07T02:31:03;0.57;;;0.57;;
15496;SDS011;7850;52.204;5.942;2023-05-07T02:32:03;0.65;;;0.65;;
15496;SDS011;7850;52.204;5.942;2023-05-07T02:33:03;0.60;;;0.60;;
15496;SDS011;7850;52.204;5.942;2023-05-07T02:34:03;0.57;;;0.57;;
15496;SDS011;7850;52.204;5.942;2023-05-07T02:35:04;0.30;;;0.30;;
15496;SDS011;7850;52.204;5.942;2023-05-07T02:36:05;0.40;;;0.40;;
15496;SDS011;7850;52.204;5.942;2023-05-07T02:37:04;0.29;;;0.29;;
15496;SDS011;7850;52.204;5.942;2023-05-07T02:38:04;0.33;;;0.33;;
15496;SDS011;7850;52.204;5.942;2023-05-07T02:39:04;0.33;;;0.33;;
15496;SDS011;7850;52.204;5.942;2023-05-07T02:40:04;0.41;;;0.41;;
15496;SDS011;7850;52.204;5.942;2023-05-07T02:41:04;0.30;;;0.30;;
15496;SDS011;7850;52.204;5.942;2023-05-07T02:42:04;0.20;;;0.20;;
15496;SDS011;7850;52.204;5.942;2023-05-07T02:43:04;0.20;;;0.20;;
15496;SDS011;7850;52.204;5.942;2023-05-07T02:44:04;0.30;;;0.30;;
15496;SDS011;7850;52.204;5.942;2023-05-07T02:45:05;0.20;;;0.20;;
15496;SDS011;7850;52.204;5.942;2023-05-07T02:46:05;0.32;;;0.32;;
15496;SDS011;7850;52.204;5.942;2023-05-07T02:47:04;0.28;;;0.28;;
15496;SDS011;7850;52.204;5.942;2023-05-07T02:48:04;0.24;;;0.24;;
15496;SDS011;7850;52.204;5.942;2023-05-07T02:49:04;0.30;;;0.30;;
15496;SDS011;7850;52.204;5.942;2023-05-07T02:50:05;0.20;;;0.20;;
15496;SDS011;7850;52.204;5.942;2023-05-07T02:51:05;0.27;;;0.27;;
15496;SDS011;7850;52.204;5.942;2023-05-07T02:52:05;0.20;;;0.20;;
15496;SDS011;7850;52.204;5.942;2023-05-07T02:53:05;0.20;;;0.20;;
15496;SDS011;7850;52.204;5.942;2023-05-07T02:54:05;0.20;;;0.20;;
15496;SDS011;7850;52.204;5.942;2023-05-07T02:55:05;0.20;;;0.20;;
15496;SDS011;7850;52.204;5.942;2023-05-07T02:56:05;0.29;;;0.29;;
15496;SDS011;7850;52.204;5.942;2023-05-07T02:57:05;0.29;;;0.29;;
15496;SDS011;7850;52.204;5.942;2023-05-07T02:58:05;0.20;;;0.20;;
15496;SDS011;7850;52.204;5.942;2023-05-07T02:59:05;0.40;;;0.40;;
15496;SDS011;7850;52.204;5.942;2023-05-07T03:00:13;0.30;;;0.30;;
15496;SDS011;7850;52.204;5.942;2023-05-07T03:01:05;0.33;;;0.33;;
15496;SDS011;7850;52.204;5.942;2023-05-07T03:02:05;0.40;;;0.40;;
15496;SDS011;7850;52.204;5.942;2023-05-07T03:03:05;0.30;;;0.30;;
15496;SDS011;7850;52.204;5.942;2023-05-07T03:04:05;0.36;;;0.36;;
15496;SDS011;7850;52.204;5.942;2023-05-07T03:05:06;0.28;;;0.28;;
15496;SDS011;7850;52.204;5.942;2023-05-07T03:06:06;0.40;;;0.40;;
15496;SDS011;7850;52.204;5.942;2023-05-07T03:07:06;0.55;;;0.55;;
15496;SDS011;7850;52.204;5.942;2023-05-07T03:08:06;0.30;;;0.30;;
15496;SDS011;7850;52.204;5.942;2023-05-07T03:09:06;0.41;;;0.41;;
15496;SDS011;7850;52.204;5.942;2023-05-07T03:10:06;0.40;;;0.40;;
15496;SDS011;7850;52.204;5.942;2023-05-07T03:11:06;0.30;;;0.30;;
15496;SDS011;7850;52.204;5.942;2023-05-07T03:12:06;0.40;;;0.40;;
15496;SDS011;7850;52.204;5.942;2023-05-07T03:13:06;0.41;;;0.41;;
15496;SDS011;7850;52.204;5.942;2023-05-07T03:14:06;0.34;;;0.34;;
15496;SDS011;7850;52.204;5.942;2023-05-07T03:15:07;0.56;;;0.56;;
15496;SDS011;7850;52.204;5.942;2023-05-07T03:16:06;0.30;;;0.30;;
15496;SDS011;7850;52.204;5.942;2023-05-07T03:17:06;0.47;;;0.47;;
15496;SDS011;7850;52.204;5.942;2023-05-07T03:18:06;0.37;;;0.37;;
15496;SDS011;7850;52.204;5.942;2023-05-07T03:19:06;0.26;;;0.26;;
15496;SDS011;7850;52.204;5.942;2023-05-07T03:20:07;0.40;;;0.40;;
15496;SDS011;7850;52.204;5.942;2023-05-07T03:21:06;0.31;;;0.31;;
15496;SDS011;7850;52.204;5.942;2023-05-07T03:22:06;0.40;;;0.40;;
15496;SDS011;7850;52.204;5.942;2023-05-07T03:23:06;0.39;;;0.39;;
15496;SDS011;7850;52.204;5.942;2023-05-07T03:24:07;0.30;;;0.30;;
15496;SDS011;7850;52.204;5.942;2023-05-07T03:25:08;0.38;;;0.38;;
15496;SDS011;7850;52.204;5.942;2023-05-07T03:26:07;0.33;;;0.33;;
15496;SDS011;7850;52.204;5.942;2023-05-07T03:27:07;0.32;;;0.32;;
15496;SDS011;7850;52.204;5.942;2023-05-07T03:28:07;0.38;;;0.38;;
15496;SDS011;7850;52.204;5.942;2023-05-07T03:29:07;0.31;;;0.31;;
15496;SDS011;7850;52.204;5.942;2023-05-07T03:30:07;0.33;;;0.33;;
15496;SDS011;7850;52.204;5.942;2023-05-07T03:31:07;0.35;;;0.35;;
15496;SDS011;7850;52.204;5.942;2023-05-07T03:32:07;0.36;;;0.36;;
15496;SDS011;7850;52.204;5.942;2023-05-07T03:33:07;0.88;;;0.88;;
15496;SDS011;7850;52.204;5.942;2023-05-07T03:34:07;0.76;;;0.76;;
15496;SDS011;7850;52.204;5.942;2023-05-07T03:35:07;0.77;;;0.77;;
15496;SDS011;7850;52.204;5.942;2023-05-07T03:36:07;0.66;;;0.66;;
15496;SDS011;7850;52.204;5.942;2023-05-07T03:37:07;0.58;;;0.58;;
15496;SDS011;7850;52.204;5.942;2023-05-07T03:38:07;0.56;;;0.56;;
15496;SDS011;7850;52.204;5.942;2023-05-07T03:39:08;0.67;;;0.67;;
15496;SDS011;7850;52.204;5.942;2023-05-07T03:40:08;0.47;;;0.47;;
15496;SDS011;7850;52.204;5.942;2023-05-07T03:41:08;0.77;;;0.77;;
15496;SDS011;7850;52.204;5.942;2023-05-07T03:42:08;0.74;;;0.74;;
15496;SDS011;7850;52.204;5.942;2023-05-07T03:43:08;0.83;;;0.83;;
15496;SDS011;7850;52.204;5.942;2023-05-07T03:44:08;0.72;;;0.72;;
15496;SDS011;7850;52.204;5.942;2023-05-07T03:45:08;0.88;;;0.88;;
15496;SDS011;7850;52.204;5.942;2023-05-07T03:46:08;0.36;;;0.36;;
15496;SDS011;7850;52.204;5.942;2023-05-07T03:47:08;0.72;;;0.72;;
15496;SDS011;7850;52.204;5.942;2023-05-07T03:48:08;0.57;;;0.57;;
15496;SDS011;7850;52.204;5.942;2023-05-07T03:49:08;0.60;;;0.60;;
15496;SDS011;7850;52.204;5.942;2023-05-07T03:50:09;0.80;;;0.80;;
15496;SDS011;7850;52.204;5.942;2023-05-07T03:51:08;0.60;;;0.60;;
15496;SDS011;7850;52.204;5.942;2023-05-07T03:52:08;0.57;;;0.57;;
15496;SDS011;7850;52.204;5.942;2023-05-07T03:53:08;0.67;;;0.67;;
15496;SDS011;7850;52.204;5.942;2023-05-07T03:54:08;0.79;;;0.79;;
15496;SDS011;7850;52.204;5.942;2023-05-07T03:55:09;0.40;;;0.40;;
15496;SDS011;7850;52.204;5.942;2023-05-07T03:56:09;0.35;;;0.35;;
15496;SDS011;7850;52.204;5.942;2023-05-07T03:57:09;0.40;;;0.40;;
15496;SDS011;7850;52.204;5.942;2023-05-07T03:58:09;0.39;;;0.39;;
15496;SDS011;7850;52.204;5.942;2023-05-07T03:59:09;0.49;;;0.49;;
15496;SDS011;7850;52.204;5.942;2023-05-07T04:00:09;0.46;;;0.46;;
15496;SDS011;7850;52.204;5.942;2023-05-07T04:01:09;0.41;;;0.41;;
15496;SDS011;7850;52.204;5.942;2023-05-07T04:02:09;0.40;;;0.40;;
15496;SDS011;7850;52.204;5.942;2023-05-07T04:03:09;0.37;;;0.37;;
15496;SDS011;7850;52.204;5.942;2023-05-07T04:04:09;0.63;;;0.63;;
15496;SDS011;7850;52.204;5.942;2023-05-07T04:05:09;0.60;;;0.60;;
15496;SDS011;7850;52.204;5.942;2023-05-07T04:06:09;0.55;;;0.55;;
15496;SDS011;7850;52.204;5.942;2023-05-07T04:07:09;0.97;;;0.97;;
15496;SDS011;7850;52.204;5.942;2023-05-07T04:08:09;0.90;;;0.90;;
15496;SDS011;7850;52.204;5.942;2023-05-07T04:09:10;0.90;;;0.90;;
15496;SDS011;7850;52.204;5.942;2023-05-07T04:10:10;1.08;;;1.08;;
15496;SDS011;7850;52.204;5.942;2023-05-07T04:11:10;0.80;;;0.80;;
15496;SDS011;7850;52.204;5.942;2023-05-07T04:12:10;0.87;;;0.87;;
15496;SDS011;7850;52.204;5.942;2023-05-07T04:13:10;0.96;;;0.96;;
15496;SDS011;7850;52.204;5.942;2023-05-07T04:14:10;1.10;;;1.10;;
15496;SDS011;7850;52.204;5.942;2023-05-07T04:15:10;1.13;;;1.13;;
15496;SDS011;7850;52.204;5.942;2023-05-07T04:16:10;0.91;;;0.91;;
15496;SDS011;7850;52.204;5.942;2023-05-07T04:17:10;0.84;;;0.84;;
15496;SDS011;7850;52.204;5.942;2023-05-07T04:18:10;1.07;;;1.07;;
15496;SDS011;7850;52.204;5.942;2023-05-07T04:19:10;1.46;;;1.46;;
15496;SDS011;7850;52.204;5.942;2023-05-07T04:20:13;0.90;;;0.90;;
15496;SDS011;7850;52.204;5.942;2023-05-07T04:21:14;0.85;;;0.85;;
15496;SDS011;7850;52.204;5.942;2023-05-07T04:22:10;0.91;;;0.91;;
15496;SDS011;7850;52.204;5.942;2023-05-07T04:23:10;0.93;;;0.93;;
15496;SDS011;7850;52.204;5.942;2023-05-07T04:24:10;0.93;;;0.93;;
15496;SDS011;7850;52.204;5.942;2023-05-07T04:25:11;0.89;;;0.89;;
15496;SDS011;7850;52.204;5.942;2023-05-07T04:26:11;0.97;;;0.97;;
15496;SDS011;7850;52.204;5.942;2023-05-07T04:27:11;0.90;;;0.90;;
15496;SDS011;7850;52.204;5.942;2023-05-07T04:28:11;0.91;;;0.91;;
15496;SDS011;7850;52.204;5.942;2023-05-07T04:29:11;0.90;;;0.90;;
15496;SDS011;7850;52.204;5.942;2023-05-07T04:30:11;0.86;;;0.86;;
15496;SDS011;7850;52.204;5.942;2023-05-07T04:31:11;1.17;;;1.17;;
15496;SDS011;7850;52.204;5.942;2023-05-07T04:32:11;1.04;;;1.04;;
15496;SDS011;7850;52.204;5.942;2023-05-07T04:33:11;1.07;;;1.07;;
15496;SDS011;7850;52.204;5.942;2023-05-07T04:34:12;1.04;;;1.04;;
15496;SDS011;7850;52.204;5.942;2023-05-07T04:35:11;1.01;;;1.01;;
15496;SDS011;7850;52.204;5.942;2023-05-07T04:36:11;1.18;;;1.18;;
15496;SDS011;7850;52.204;5.942;2023-05-07T04:37:11;0.97;;;0.97;;
15496;SDS011;7850;52.204;5.942;2023-05-07T04:38:11;1.00;;;1.00;;
15496;SDS011;7850;52.204;5.942;2023-05-07T04:39:11;0.64;;;0.64;;
15496;SDS011;7850;52.204;5.942;2023-05-07T04:40:12;0.50;;;0.50;;
15496;SDS011;7850;52.204;5.942;2023-05-07T04:41:12;0.70;;;0.70;;
15496;SDS011;7850;52.204;5.942;2023-05-07T04:42:14;0.64;;;0.64;;
15496;SDS011;7850;52.204;5.942;2023-05-07T04:43:12;0.63;;;0.63;;
15496;SDS011;7850;52.204;5.942;2023-05-07T04:44:12;0.60;;;0.60;;
15496;SDS011;7850;52.204;5.942;2023-05-07T04:45:12;0.68;;;0.68;;
15496;SDS011;7850;52.204;5.942;2023-05-07T04:46:12;0.64;;;0.64;;
15496;SDS011;7850;52.204;5.942;2023-05-07T04:47:14;0.51;;;0.51;;
15496;SDS011;7850;52.204;5.942;2023-05-07T04:48:12;0.50;;;0.50;;
15496;SDS011;7850;52.204;5.942;2023-05-07T04:49:12;0.62;;;0.62;;
15496;SDS011;7850;52.204;5.942;2023-05-07T04:50:14;1.18;;;1.18;;
15496;SDS011;7850;52.204;5.942;2023-05-07T04:51:12;0.59;;;0.59;;
15496;SDS011;7850;52.204;5.942;2023-05-07T04:52:12;0.52;;;0.52;;
15496;SDS011;7850;52.204;5.942;2023-05-07T04:53:12;0.67;;;0.67;;
15496;SDS011;7850;52.204;5.942;2023-05-07T04:54:17;0.67;;;0.67;;
15496;SDS011;7850;52.204;5.942;2023-05-07T04:55:13;0.40;;;0.40;;
15496;SDS011;7850;52.204;5.942;2023-05-07T04:56:12;0.47;;;0.47;;
15496;SDS011;7850;52.204;5.942;2023-05-07T04:57:13;0.80;;;0.80;;
15496;SDS011;7850;52.204;5.942;2023-05-07T04:58:13;0.42;;;0.42;;
15496;SDS011;7850;52.204;5.942;2023-05-07T04:59:13;0.50;;;0.50;;
15496;SDS011;7850;52.204;5.942;2023-05-07T05:00:14;0.80;;;0.80;;
15496;SDS011;7850;52.204;5.942;2023-05-07T05:01:14;0.59;;;0.59;;
15496;SDS011;7850;52.204;5.942;2023-05-07T05:02:14;0.56;;;0.56;;
15496;SDS011;7850;52.204;5.942;2023-05-07T05:03:13;0.70;;;0.70;;
15496;SDS011;7850;52.204;5.942;2023-05-07T05:04:14;0.65;;;0.65;;
15496;SDS011;7850;52.204;5.942;2023-05-07T05:05:13;0.42;;;0.42;;
15496;SDS011;7850;52.204;5.942;2023-05-07T05:06:13;0.52;;;0.52;;
15496;SDS011;7850;52.204;5.942;2023-05-07T05:07:13;1.13;;;1.13;;
15496;SDS011;7850;52.204;5.942;2023-05-07T05:08:13;0.64;;;0.64;;
15496;SDS011;7850;52.204;5.942;2023-05-07T05:09:13;0.81;;;0.81;;
15496;SDS011;7850;52.204;5.942;2023-05-07T05:10:13;0.62;;;0.62;;
15496;SDS011;7850;52.204;5.942;2023-05-07T05:11:13;0.38;;;0.38;;
15496;SDS011;7850;52.204;5.942;2023-05-07T05:12:13;0.75;;;0.75;;
15496;SDS011;7850;52.204;5.942;2023-05-07T05:13:13;0.68;;;0.68;;
15496;SDS011;7850;52.204;5.942;2023-05-07T05:14:13;0.35;;;0.36;;
15496;SDS011;7850;52.204;5.942;2023-05-07T05:15:13;0.65;;;0.66;;
15496;SDS011;7850;52.204;5.942;2023-05-07T05:16:14;0.24;;;0.24;;
15496;SDS011;7850;52.204;5.942;2023-05-07T05:17:14;0.42;;;0.42;;
15496;SDS011;7850;52.204;5.942;2023-05-07T05:18:14;0.43;;;0.43;;
15496;SDS011;7850;52.204;5.942;2023-05-07T05:19:14;0.33;;;0.34;;
15496;SDS011;7850;52.204;5.942;2023-05-07T05:20:14;0.37;;;0.38;;
15496;SDS011;7850;52.204;5.942;2023-05-07T05:21:14;0.40;;;0.40;;
15496;SDS011;7850;52.204;5.942;2023-05-07T05:22:14;0.48;;;0.48;;
15496;SDS011;7850;52.204;5.942;2023-05-07T05:23:14;0.31;;;0.31;;
15496;SDS011;7850;52.204;5.942;2023-05-07T05:24:14;0.35;;;0.35;;
15496;SDS011;7850;52.204;5.942;2023-05-07T05:25:14;0.31;;;0.31;;
15496;SDS011;7850;52.204;5.942;2023-05-07T05:26:14;0.30;;;0.30;;
15496;SDS011;7850;52.204;5.942;2023-05-07T05:27:14;0.37;;;0.37;;
15496;SDS011;7850;52.204;5.942;2023-05-07T05:28:14;0.37;;;0.37;;
15496;SDS011;7850;52.204;5.942;2023-05-07T05:29:14;0.32;;;0.32;;
15496;SDS011;7850;52.204;5.942;2023-05-07T05:30:15;0.44;;;0.44;;
15496;SDS011;7850;52.204;5.942;2023-05-07T05:31:15;0.39;;;0.39;;
15496;SDS011;7850;52.204;5.942;2023-05-07T05:32:15;0.31;;;0.31;;
15496;SDS011;7850;52.204;5.942;2023-05-07T05:33:15;0.42;;;0.42;;
15496;SDS011;7850;52.204;5.942;2023-05-07T05:34:15;0.45;;;0.45;;
15496;SDS011;7850;52.204;5.942;2023-05-07T05:35:15;0.49;;;0.49;;
15496;SDS011;7850;52.204;5.942;2023-05-07T05:36:15;0.38;;;0.38;;
15496;SDS011;7850;52.204;5.942;2023-05-07T05:37:15;0.30;;;0.30;;
15496;SDS011;7850;52.204;5.942;2023-05-07T05:38:15;0.48;;;0.48;;
15496;SDS011;7850;52.204;5.942;2023-05-07T05:39:15;0.39;;;0.39;;
15496;SDS011;7850;52.204;5.942;2023-05-07T05:40:15;0.49;;;0.49;;
15496;SDS011;7850;52.204;5.942;2023-05-07T05:41:15;0.34;;;0.34;;
15496;SDS011;7850;52.204;5.942;2023-05-07T05:42:15;0.33;;;0.33;;
15496;SDS011;7850;52.204;5.942;2023-05-07T05:43:15;0.39;;;0.39;;
15496;SDS011;7850;52.204;5.942;2023-05-07T05:44:16;0.39;;;0.39;;
15496;SDS011;7850;52.204;5.942;2023-05-07T05:45:16;0.52;;;0.52;;
15496;SDS011;7850;52.204;5.942;2023-05-07T05:46:16;0.40;;;0.40;;
15496;SDS011;7850;52.204;5.942;2023-05-07T05:47:16;0.41;;;0.41;;
15496;SDS011;7850;52.204;5.942;2023-05-07T05:48:16;0.47;;;0.47;;
15496;SDS011;7850;52.204;5.942;2023-05-07T05:49:16;0.34;;;0.34;;
15496;SDS011;7850;52.204;5.942;2023-05-07T05:50:16;0.36;;;0.36;;
15496;SDS011;7850;52.204;5.942;2023-05-07T05:51:16;0.60;;;0.60;;
15496;SDS011;7850;52.204;5.942;2023-05-07T05:52:16;0.44;;;0.44;;
15496;SDS011;7850;52.204;5.942;2023-05-07T05:53:16;0.30;;;0.30;;
15496;SDS011;7850;52.204;5.942;2023-05-07T05:54:16;0.30;;;0.30;;
15496;SDS011;7850;52.204;5.942;2023-05-07T05:55:16;0.31;;;0.31;;
15496;SDS011;7850;52.204;5.942;2023-05-07T05:56:16;0.30;;;0.30;;
15496;SDS011;7850;52.204;5.942;2023-05-07T05:57:16;0.97;;;0.97;;
15496;SDS011;7850;52.204;5.942;2023-05-07T05:58:16;0.37;;;0.37;;
15496;SDS011;7850;52.204;5.942;2023-05-07T05:59:17;0.44;;;0.44;;
15496;SDS011;7850;52.204;5.942;2023-05-07T06:00:17;0.72;;;0.72;;
15496;SDS011;7850;52.204;5.942;2023-05-07T06:01:17;0.30;;;0.30;;
15496;SDS011;7850;52.204;5.942;2023-05-07T06:02:17;0.41;;;0.41;;
15496;SDS011;7850;52.204;5.942;2023-05-07T06:03:17;0.36;;;0.36;;
15496;SDS011;7850;52.204;5.942;2023-05-07T06:04:17;0.40;;;0.40;;
15496;SDS011;7850;52.204;5.942;2023-05-07T06:05:17;0.63;;;0.63;;
15496;SDS011;7850;52.204;5.942;2023-05-07T06:06:17;0.31;;;0.31;;
15496;SDS011;7850;52.204;5.942;2023-05-07T06:07:17;0.73;;;0.73;;